createdAt,value
2023-03-01T00:00:48.249Z,-0.58
2023-03-01T00:03:17.160Z,-0.59
2023-03-01T00:05:48.580Z,-0.63
2023-03-01T00:08:18.868Z,-0.64
2023-03-01T00:10:48.412Z,-0.64
2023-03-01T00:13:17.865Z,-0.67
2023-03-01T00:15:47.760Z,-0.72
2023-03-01T00:18:16.121Z,-0.74
2023-03-01T00:20:52.009Z,-0.74
2023-03-01T00:23:23.930Z,-0.76
2023-03-01T00:25:54.280Z,-0.76
2023-03-01T00:28:24.435Z,-0.87
2023-03-01T00:30:53.915Z,-0.95
2023-03-01T00:33:22.915Z,-1.01
2023-03-01T00:35:52.251Z,-0.97
2023-03-01T00:38:23.675Z,-0.95
2023-03-01T00:40:53.094Z,-0.93
2023-03-01T00:43:22.881Z,-0.98
2023-03-01T00:45:51.795Z,-1.01
2023-03-01T00:48:20.739Z,-1.08
2023-03-01T00:50:50.196Z,-1.04
2023-03-01T00:53:19.121Z,-1.02
2023-03-01T00:55:49.432Z,-0.98
2023-03-01T00:58:18.356Z,-0.96
2023-03-01T01:00:47.312Z,-0.97
2023-03-01T01:03:17.291Z,-0.97
2023-03-01T01:05:46.216Z,-1.09
2023-03-01T01:08:14.894Z,-1.05
2023-03-01T01:10:46.358Z,-1.05
2023-03-01T01:13:19.179Z,-1.07
2023-03-01T01:15:48.200Z,-1.10
2023-03-01T01:18:17.603Z,-1.18
2023-03-01T01:20:47.533Z,-1.10
2023-03-01T01:23:17.941Z,-1.14
2023-03-01T01:25:46.280Z,-1.11
2023-03-01T01:28:17.979Z,-1.11
2023-03-01T01:30:48.029Z,-1.16
2023-03-01T01:33:18.588Z,-1.29
2023-03-01T01:35:48.037Z,-1.26
2023-03-01T01:38:18.480Z,-1.33
2023-03-01T01:40:47.626Z,-1.31
2023-03-01T01:43:25.162Z,-1.38
2023-03-01T01:45:59.103Z,-1.36
2023-03-01T01:48:42.088Z,-1.32
2023-03-01T01:51:17.495Z,-1.34
2023-03-01T01:53:53.779Z,-1.33
2023-03-01T01:56:27.315Z,-1.32
2023-03-01T01:58:59.708Z,-1.35
2023-03-01T02:01:29.269Z,-1.39
2023-03-01T02:03:59.380Z,-1.38
2023-03-01T02:06:36.912Z,-1.40
2023-03-01T02:09:13.743Z,-1.36
2023-03-01T02:11:45.522Z,-1.38
2023-03-01T02:14:16.559Z,-1.44
2023-03-01T02:16:46.040Z,-1.43
2023-03-01T02:19:32.465Z,-1.56
2023-03-01T02:22:16.201Z,-1.53
2023-03-01T02:25:02.359Z,-1.47
2023-03-01T02:27:42.996Z,-1.51
2023-03-01T02:30:15.866Z,-1.59
2023-03-01T02:32:45.293Z,-1.59
2023-03-01T02:35:20.634Z,-1.67
2023-03-01T02:37:51.608Z,-1.59
2023-03-01T02:40:23.203Z,-1.57
2023-03-01T02:42:58.741Z,-1.55
2023-03-01T02:45:29.778Z,-1.58
2023-03-01T02:48:00.711Z,-1.64
2023-03-01T02:51:02.355Z,-1.57
2023-03-01T02:53:44.876Z,-1.60
2023-03-01T02:56:14.948Z,-1.52
2023-03-01T02:58:49.105Z,-1.50
2023-03-01T03:01:19.799Z,-1.46
2023-03-01T03:03:49.694Z,-1.47
2023-03-01T03:06:19.655Z,-1.50
2023-03-01T03:08:50.532Z,-1.46
2023-03-01T03:11:20.543Z,-1.42
2023-03-01T03:13:49.435Z,-1.44
2023-03-01T03:16:21.038Z,-1.49
2023-03-01T03:18:51.226Z,-1.49
2023-03-01T03:21:20.449Z,-1.50
2023-03-01T03:23:49.874Z,-1.52
2023-03-01T03:26:20.336Z,-1.47
2023-03-01T03:28:50.640Z,-1.54
2023-03-01T03:31:21.455Z,-1.49
2023-03-01T03:33:51.188Z,-1.59
2023-03-01T03:36:22.217Z,-1.51
2023-03-01T03:38:50.991Z,-1.53
2023-03-01T03:41:20.409Z,-1.53
2023-03-01T03:43:50.079Z,-1.55
2023-03-01T03:46:21.388Z,-1.55
2023-03-01T03:48:51.046Z,-1.55
2023-03-01T03:51:20.981Z,-1.54
2023-03-01T03:53:50.910Z,-1.55
2023-03-01T03:56:20.351Z,-1.55
2023-03-01T03:58:50.368Z,-1.53
2023-03-01T04:01:21.483Z,-1.53
2023-03-01T04:03:55.876Z,-1.54
2023-03-01T04:06:26.504Z,-1.53
2023-03-01T04:08:59.784Z,-1.50
2023-03-01T04:11:30.321Z,-1.52
2023-03-01T04:14:01.452Z,-1.49
2023-03-01T04:16:33.643Z,-1.48
2023-03-01T04:19:03.037Z,-1.46
2023-03-01T04:21:32.888Z,-1.46
2023-03-01T04:24:05.212Z,-1.43
2023-03-01T04:26:34.815Z,-1.40
2023-03-01T04:29:05.298Z,-1.38
2023-03-01T04:31:36.072Z,-1.40
2023-03-01T04:34:05.432Z,-1.36
2023-03-01T04:36:38.997Z,-1.35
2023-03-01T04:39:13.684Z,-1.36
2023-03-01T04:41:46.401Z,-1.33
2023-03-01T04:44:16.337Z,-1.28
2023-03-01T04:46:47.648Z,-1.28
2023-03-01T04:49:17.061Z,-1.26
2023-03-01T04:51:46.953Z,-1.24
2023-03-01T04:54:16.294Z,-1.22
2023-03-01T04:56:46.927Z,-1.19
2023-03-01T04:59:15.833Z,-1.17
2023-03-01T05:01:47.291Z,-1.16
2023-03-01T05:04:16.744Z,-1.15
2023-03-01T05:06:46.721Z,-1.15
2023-03-01T05:09:16.939Z,-1.17
2023-03-01T05:11:46.867Z,-1.12
2023-03-01T05:14:17.282Z,-1.13
2023-03-01T05:16:48.266Z,-1.10
2023-03-01T05:19:17.234Z,-1.10
2023-03-01T05:22:06.707Z,-1.09
2023-03-01T05:24:38.050Z,-1.12
2023-03-01T05:27:08.905Z,-1.11
2023-03-01T05:29:40.526Z,-1.09
2023-03-01T05:32:17.260Z,-1.13
2023-03-01T05:34:48.655Z,-1.16
2023-03-01T05:37:18.424Z,-1.09
2023-03-01T05:39:50.638Z,-1.08
2023-03-01T05:42:20.606Z,-1.09
2023-03-01T05:44:49.948Z,-1.09
2023-03-01T05:47:22.778Z,-1.13
2023-03-01T05:49:51.366Z,-1.08
2023-03-01T05:52:20.183Z,-1.10
2023-03-01T05:54:50.194Z,-1.12
2023-03-01T05:57:20.052Z,-1.10
2023-03-01T05:59:49.689Z,-1.13
2023-03-01T06:02:22.104Z,-1.12
2023-03-01T06:04:52.099Z,-1.13
2023-03-01T06:07:21.736Z,-1.09
2023-03-01T06:09:51.696Z,-1.10
2023-03-01T06:12:21.089Z,-1.12
2023-03-01T06:14:50.971Z,-1.13
2023-03-01T06:17:21.872Z,-1.13
2023-03-01T06:19:52.456Z,-1.17
2023-03-01T06:22:21.810Z,-1.15
2023-03-01T06:24:51.454Z,-1.17
2023-03-01T06:27:21.310Z,-1.12
2023-03-01T06:29:50.888Z,-1.14
2023-03-01T06:32:21.563Z,-1.10
2023-03-01T06:34:50.650Z,-1.08
2023-03-01T06:37:19.708Z,-1.05
2023-03-01T06:39:49.632Z,-1.05
2023-03-01T06:42:18.635Z,-1.03
2023-03-01T06:44:47.921Z,-1.04
2023-03-01T06:47:18.050Z,-1.02
2023-03-01T06:49:49.872Z,-0.99
2023-03-01T06:52:18.639Z,-0.95
2023-03-01T06:54:48.514Z,-0.95
2023-03-01T06:57:18.550Z,-0.92
2023-03-01T06:59:50.394Z,-0.89
2023-03-01T07:02:22.588Z,-0.87
2023-03-01T07:04:53.476Z,-0.89
2023-03-01T07:07:23.703Z,-0.88
2023-03-01T07:09:54.928Z,-0.84
2023-03-01T07:12:24.347Z,-0.81
2023-03-01T07:14:54.801Z,-0.77
2023-03-01T07:17:24.799Z,-0.74
2023-03-01T07:19:56.329Z,-0.70
2023-03-01T07:22:26.872Z,-0.68
2023-03-01T07:24:57.346Z,-0.64
2023-03-01T07:27:27.321Z,-0.63
2023-03-01T07:29:56.688Z,-0.59
2023-03-01T07:32:26.730Z,-0.57
2023-03-01T07:34:58.194Z,-0.56
2023-03-01T07:37:27.571Z,-0.54
2023-03-01T07:39:56.545Z,-0.51
2023-03-01T07:42:25.972Z,-0.49
2023-03-01T07:44:56.720Z,-0.48
2023-03-01T07:47:26.769Z,-0.47
2023-03-01T07:49:58.066Z,-0.46
2023-03-01T07:52:28.072Z,-0.44
2023-03-01T07:54:57.455Z,-0.46
2023-03-01T07:57:28.598Z,-0.40
2023-03-01T07:59:59.125Z,-0.37
2023-03-01T08:02:29.880Z,-0.38
2023-03-01T08:05:01.408Z,-0.33
2023-03-01T08:07:30.817Z,-0.32
2023-03-01T08:10:00.318Z,-0.30
2023-03-01T08:12:29.794Z,-0.29
2023-03-01T08:14:59.547Z,-0.24
2023-03-01T08:17:29.615Z,-0.20
2023-03-01T08:20:00.876Z,-0.15
2023-03-01T08:22:30.282Z,-0.09
2023-03-01T08:25:00.766Z,-0.03
2023-03-01T08:27:30.988Z,0.04
2023-03-01T08:30:00.586Z,0.12
2023-03-01T08:32:29.599Z,0.16
2023-03-01T08:34:59.993Z,0.23
2023-03-01T08:37:32.610Z,0.31
2023-03-01T08:40:02.596Z,0.36
2023-03-01T08:42:32.491Z,0.45
2023-03-01T08:45:03.493Z,0.56
2023-03-01T08:47:34.550Z,0.65
2023-03-01T08:50:07.979Z,0.75
2023-03-01T08:52:38.548Z,0.83
2023-03-01T08:55:12.296Z,0.94
2023-03-01T08:57:41.789Z,1.03
2023-03-01T09:00:16.507Z,1.12
2023-03-01T09:02:46.050Z,1.23
2023-03-01T09:05:20.003Z,1.30
2023-03-01T09:07:50.433Z,1.36
2023-03-01T09:10:20.400Z,1.45
2023-03-01T09:12:50.461Z,1.53
2023-03-01T09:15:20.727Z,1.56
2023-03-01T09:17:50.789Z,1.59
2023-03-01T09:20:21.652Z,1.63
2023-03-01T09:22:50.960Z,1.63
2023-03-01T09:25:21.987Z,1.70
2023-03-01T09:27:54.427Z,1.72
2023-03-01T09:30:25.859Z,1.76
2023-03-01T09:32:56.502Z,1.77
2023-03-01T09:35:27.444Z,1.82
2023-03-01T09:37:57.150Z,1.82
2023-03-01T09:40:30.440Z,1.88
2023-03-01T09:43:17.537Z,1.91
2023-03-01T09:45:52.896Z,1.93
2023-03-01T09:48:28.780Z,1.96
2023-03-01T09:51:02.367Z,2.02
2023-03-01T09:53:36.974Z,2.03
2023-03-01T09:56:20.592Z,2.06
2023-03-01T09:59:02.148Z,2.12
2023-03-01T10:01:37.913Z,2.19
2023-03-01T10:04:31.218Z,2.21
2023-03-01T10:07:24.504Z,2.22
2023-03-01T10:09:53.621Z,2.27
2023-03-01T10:12:28.970Z,2.30
2023-03-01T10:15:07.621Z,2.34
2023-03-01T10:17:44.028Z,2.37
2023-03-01T10:20:26.011Z,2.44
2023-03-01T10:22:57.279Z,2.46
2023-03-01T10:25:45.874Z,2.51
2023-03-01T10:28:23.678Z,2.54
2023-03-01T10:30:54.879Z,2.60
2023-03-01T10:33:29.339Z,2.64
2023-03-01T10:35:58.991Z,2.66
2023-03-01T10:38:33.879Z,2.71
2023-03-01T10:41:09.840Z,2.76
2023-03-01T10:43:48.771Z,2.81
2023-03-01T10:46:34.494Z,2.84
2023-03-01T10:49:18.395Z,2.88
2023-03-01T10:51:50.520Z,2.93
2023-03-01T10:54:28.122Z,2.95
2023-03-01T10:57:00.777Z,3.04
2023-03-01T10:59:34.297Z,3.09
2023-03-01T11:02:28.729Z,3.13
2023-03-01T11:05:04.114Z,3.19
2023-03-01T11:07:33.821Z,3.23
2023-03-01T11:10:19.449Z,3.28
2023-03-01T11:12:49.921Z,3.32
2023-03-01T11:15:27.890Z,3.38
2023-03-01T11:18:12.672Z,3.45
2023-03-01T11:20:44.761Z,3.45
2023-03-01T11:23:16.797Z,3.48
2023-03-01T11:26:01.276Z,3.53
2023-03-01T11:28:32.819Z,3.55
2023-03-01T11:31:10.489Z,3.65
2023-03-01T11:33:51.007Z,3.71
2023-03-01T11:36:34.499Z,3.76
2023-03-01T11:39:21.857Z,3.81
2023-03-01T11:42:18.129Z,3.86
2023-03-01T11:44:52.454Z,3.89
2023-03-01T11:47:44.807Z,3.93
2023-03-01T11:50:31.744Z,3.98
2023-03-01T11:53:33.885Z,4.02
2023-03-01T11:56:25.325Z,4.09
2023-03-01T11:59:40.234Z,4.10
2023-03-01T12:03:08.494Z,4.12
2023-03-01T12:06:28.411Z,4.17
2023-03-01T12:09:19.399Z,4.22
2023-03-01T12:12:27.794Z,4.25
2023-03-01T12:15:36.251Z,4.30
2023-03-01T12:18:44.172Z,4.36
2023-03-01T12:21:33.493Z,4.37
2023-03-01T12:24:45.704Z,4.41
2023-03-01T12:27:57.894Z,4.52
2023-03-01T12:30:51.100Z,4.57
2023-03-01T12:33:37.230Z,4.58
2023-03-01T12:36:43.685Z,4.61
2023-03-01T12:39:44.986Z,4.63
2023-03-01T12:42:33.791Z,4.68
2023-03-01T12:45:28.436Z,4.75
2023-03-01T12:48:23.887Z,4.74
2023-03-01T12:50:58.268Z,4.73
2023-03-01T12:53:32.534Z,4.78
2023-03-01T12:56:08.475Z,4.85
2023-03-01T12:58:51.105Z,4.88
2023-03-01T13:01:39.963Z,4.92
2023-03-01T13:04:42.705Z,4.93
2023-03-01T13:07:28.756Z,4.98
2023-03-01T13:10:17.005Z,5.05
2023-03-01T13:13:04.909Z,5.09
2023-03-01T13:15:58.288Z,5.14
2023-03-01T13:18:35.159Z,5.17
2023-03-01T13:21:08.222Z,5.19
2023-03-01T13:23:40.454Z,5.24
2023-03-01T13:26:18.508Z,5.26
2023-03-01T13:29:01.175Z,5.33
2023-03-01T13:32:05.573Z,5.38
2023-03-01T13:34:51.407Z,5.42
2023-03-01T13:37:34.708Z,5.50
2023-03-01T13:41:02.498Z,5.55
2023-03-01T13:43:36.361Z,5.61
2023-03-01T13:46:18.269Z,5.62
2023-03-01T13:48:53.318Z,5.66
2023-03-01T13:51:29.396Z,5.69
2023-03-01T13:54:01.534Z,5.79
2023-03-01T13:56:38.418Z,5.84
2023-03-01T13:59:16.476Z,5.85
2023-03-01T14:01:45.363Z,5.92
2023-03-01T14:04:25.574Z,5.94
2023-03-01T14:07:12.647Z,6.05
2023-03-01T14:09:46.823Z,6.12
2023-03-01T14:12:46.238Z,6.13
2023-03-01T14:15:24.833Z,6.16
2023-03-01T14:18:30.210Z,6.30
2023-03-01T14:20:59.870Z,6.39
2023-03-01T14:23:30.883Z,6.64
2023-03-01T14:26:01.852Z,6.80
2023-03-01T14:28:34.928Z,7.12
2023-03-01T14:31:05.241Z,7.36
2023-03-01T14:33:37.855Z,7.66
2023-03-01T14:36:11.380Z,7.75
2023-03-01T14:38:44.494Z,7.73
2023-03-01T14:41:19.867Z,7.70
2023-03-01T14:43:52.808Z,7.64
2023-03-01T14:46:26.727Z,7.69
2023-03-01T14:49:03.673Z,7.62
2023-03-01T14:51:37.644Z,7.63
2023-03-01T14:54:23.454Z,7.60
2023-03-01T14:56:57.514Z,7.54
2023-03-01T14:59:27.596Z,7.46
2023-03-01T15:02:00.345Z,7.51
2023-03-01T15:04:32.180Z,7.54
2023-03-01T15:07:06.456Z,7.55
2023-03-01T15:09:39.807Z,7.51
2023-03-01T15:12:38.941Z,7.49
2023-03-01T15:15:42.094Z,7.46
2023-03-01T15:18:22.885Z,7.46
2023-03-01T15:20:53.820Z,7.47
2023-03-01T15:23:29.177Z,7.44
2023-03-01T15:26:01.612Z,7.45
2023-03-01T15:28:37.583Z,7.42
2023-03-01T15:31:25.987Z,7.44
2023-03-01T15:34:12.518Z,7.46
2023-03-01T15:36:46.392Z,7.42
2023-03-01T15:39:55.894Z,7.43
2023-03-01T15:42:40.242Z,7.40
2023-03-01T15:45:24.855Z,7.34
2023-03-01T15:47:58.830Z,7.33
2023-03-01T15:50:32.414Z,7.33
2023-03-01T15:53:03.268Z,7.36
2023-03-01T15:55:34.636Z,7.35
2023-03-01T15:58:09.550Z,7.35
2023-03-01T16:00:48.655Z,7.32
2023-03-01T16:03:26.758Z,7.26
2023-03-01T16:05:56.727Z,7.16
2023-03-01T16:08:26.167Z,7.16
2023-03-01T16:10:56.737Z,7.11
2023-03-01T16:13:29.068Z,7.10
2023-03-01T16:15:59.764Z,7.04
2023-03-01T16:18:29.323Z,6.96
2023-03-01T16:20:58.364Z,6.94
2023-03-01T16:23:28.466Z,6.89
2023-03-01T16:26:01.809Z,6.79
2023-03-01T16:28:30.319Z,6.76
2023-03-01T16:31:02.415Z,6.75
2023-03-01T16:33:34.222Z,6.68
2023-03-01T16:36:04.242Z,6.64
2023-03-01T16:38:36.210Z,6.61
2023-03-01T16:41:05.691Z,6.55
2023-03-01T16:43:35.321Z,6.52
2023-03-01T16:46:14.380Z,6.50
2023-03-01T16:48:45.142Z,6.42
2023-03-01T16:51:15.043Z,6.36
2023-03-01T16:53:47.094Z,6.35
2023-03-01T16:56:19.220Z,6.24
2023-03-01T16:58:48.876Z,6.18
2023-03-01T17:01:24.924Z,6.12
2023-03-01T17:03:54.584Z,6.07
2023-03-01T17:06:25.854Z,6.01
2023-03-01T17:08:54.697Z,5.93
2023-03-01T17:11:24.432Z,5.82
2023-03-01T17:13:54.426Z,5.83
2023-03-01T17:16:25.130Z,5.79
2023-03-01T17:18:54.102Z,5.74
2023-03-01T17:21:24.115Z,5.70
2023-03-01T17:23:58.819Z,5.68
2023-03-01T17:26:30.081Z,5.62
2023-03-01T17:28:59.601Z,5.60
2023-03-01T17:31:30.797Z,5.56
2023-03-01T17:34:01.663Z,5.51
2023-03-01T17:36:30.298Z,5.48
2023-03-01T17:39:00.718Z,5.43
2023-03-01T17:41:31.000Z,5.39
2023-03-01T17:44:01.537Z,5.40
2023-03-01T17:46:32.499Z,5.32
2023-03-01T17:49:01.374Z,5.30
2023-03-01T17:51:32.519Z,5.23
2023-03-01T17:54:02.802Z,5.22
2023-03-01T17:56:32.841Z,5.18
2023-03-01T17:59:01.869Z,5.12
2023-03-01T18:01:33.820Z,5.11
2023-03-01T18:04:03.052Z,5.09
2023-03-01T18:06:32.930Z,5.05
2023-03-01T18:09:02.219Z,4.97
2023-03-01T18:11:32.244Z,4.95
2023-03-01T18:14:02.633Z,4.94
2023-03-01T18:16:34.681Z,4.92
2023-03-01T18:19:05.556Z,4.84
2023-03-01T18:21:34.914Z,4.85
2023-03-01T18:24:04.584Z,4.79
2023-03-01T18:26:35.155Z,4.74
2023-03-01T18:29:05.455Z,4.72
2023-03-01T18:31:36.931Z,4.65
2023-03-01T18:34:06.541Z,4.58
2023-03-01T18:36:38.373Z,4.54
2023-03-01T18:39:10.198Z,4.42
2023-03-01T18:41:40.044Z,4.39
2023-03-01T18:44:09.578Z,4.38
2023-03-01T18:46:40.584Z,4.33
2023-03-01T18:49:11.444Z,4.28
2023-03-01T18:51:42.413Z,4.23
2023-03-01T18:54:14.026Z,4.11
2023-03-01T18:56:44.296Z,4.17
2023-03-01T18:59:13.973Z,4.13
2023-03-01T19:01:43.816Z,4.10
2023-03-01T19:04:13.501Z,4.04
2023-03-01T19:06:44.009Z,3.99
2023-03-01T19:09:13.351Z,3.88
2023-03-01T19:11:43.918Z,3.86
2023-03-01T19:14:12.952Z,3.84
2023-03-01T19:16:41.512Z,3.82
2023-03-01T19:19:12.789Z,3.77
2023-03-01T19:21:42.172Z,3.72
2023-03-01T19:24:12.113Z,3.69
2023-03-01T19:26:43.228Z,3.69
2023-03-01T19:29:12.836Z,3.67
2023-03-01T19:31:41.315Z,3.62
2023-03-01T19:34:12.859Z,3.59
2023-03-01T19:36:43.247Z,3.53
2023-03-01T19:39:14.236Z,3.50
2023-03-01T19:41:43.914Z,3.46
2023-03-01T19:44:14.028Z,3.39
2023-03-01T19:46:43.654Z,3.32
2023-03-01T19:49:15.506Z,3.23
2023-03-01T19:51:45.741Z,3.02
2023-03-01T19:54:14.852Z,3.05
2023-03-01T19:56:44.939Z,3.01
2023-03-01T19:59:15.453Z,3.02
2023-03-01T20:01:44.669Z,2.95
2023-03-01T20:04:15.954Z,2.90
2023-03-01T20:06:46.983Z,2.85
2023-03-01T20:09:21.914Z,2.79
2023-03-01T20:11:51.958Z,2.75
2023-03-01T20:14:23.540Z,2.70
2023-03-01T20:16:53.278Z,2.62
2023-03-01T20:19:24.142Z,2.61
2023-03-01T20:21:53.502Z,2.61
2023-03-01T20:24:22.039Z,2.50
2023-03-01T20:26:51.112Z,2.46
2023-03-01T20:29:20.158Z,2.41
2023-03-01T20:31:50.866Z,2.44
2023-03-01T20:34:21.105Z,2.42
2023-03-01T20:36:56.810Z,2.40
2023-03-01T20:39:30.128Z,2.36
2023-03-01T20:41:59.403Z,2.32
2023-03-01T20:44:27.935Z,2.30
2023-03-01T20:47:00.092Z,2.24
2023-03-01T20:49:29.721Z,2.20
2023-03-01T20:51:59.432Z,2.18
2023-03-01T20:54:31.073Z,2.02
2023-03-01T20:57:01.047Z,2.09
2023-03-01T20:59:30.360Z,2.06
2023-03-01T21:01:59.951Z,2.05
2023-03-01T21:04:28.927Z,1.97
2023-03-01T21:06:58.874Z,1.97
2023-03-01T21:09:30.238Z,1.97
2023-03-01T21:12:01.006Z,1.94
2023-03-01T21:14:43.020Z,1.90
2023-03-01T21:17:14.504Z,1.89
2023-03-01T21:19:46.006Z,1.84
2023-03-01T21:22:16.624Z,1.79
2023-03-01T21:24:46.758Z,1.78
2023-03-01T21:27:15.686Z,1.75
2023-03-01T21:29:46.939Z,1.73
2023-03-01T21:32:16.081Z,1.72
2023-03-01T21:34:47.909Z,1.59
2023-03-01T21:37:17.109Z,1.52
2023-03-01T21:39:48.449Z,1.52
2023-03-01T21:42:17.376Z,1.51
2023-03-01T21:44:47.064Z,1.49
2023-03-01T21:47:16.559Z,1.45
2023-03-01T21:49:47.537Z,1.45
2023-03-01T21:52:17.124Z,1.37
2023-03-01T21:54:47.693Z,1.40
2023-03-01T21:57:17.937Z,1.39
2023-03-01T21:59:47.433Z,1.36
2023-03-01T22:02:16.443Z,1.38
2023-03-01T22:04:47.061Z,1.35
2023-03-01T22:07:15.743Z,1.28
2023-03-01T22:09:47.027Z,1.24
2023-03-01T22:12:16.445Z,1.27
2023-03-01T22:14:44.968Z,1.24
2023-03-01T22:17:13.940Z,1.26
2023-03-01T22:19:46.273Z,1.19
2023-03-01T22:22:15.908Z,1.21
2023-03-01T22:24:46.675Z,1.20
2023-03-01T22:27:16.195Z,1.12
2023-03-01T22:29:46.669Z,1.10
2023-03-01T22:32:15.883Z,1.05
2023-03-01T22:34:45.333Z,0.93
2023-03-01T22:37:15.613Z,0.99
2023-03-01T22:39:47.462Z,0.94
2023-03-01T22:42:16.394Z,1.02
2023-03-01T22:44:46.395Z,0.93
2023-03-01T22:47:15.751Z,0.97
2023-03-01T22:49:45.740Z,0.95
2023-03-01T22:52:15.840Z,0.92
2023-03-01T22:54:44.791Z,0.95
2023-03-01T22:57:15.589Z,0.94
2023-03-01T22:59:46.579Z,0.92
2023-03-01T23:02:16.309Z,0.81
2023-03-01T23:04:48.932Z,0.80
2023-03-01T23:07:18.409Z,0.75
2023-03-01T23:09:50.610Z,0.70
2023-03-01T23:12:22.432Z,0.74
2023-03-01T23:14:53.354Z,0.75
2023-03-01T23:17:22.833Z,0.75
2023-03-01T23:19:52.354Z,0.72
2023-03-01T23:22:22.914Z,0.65
2023-03-01T23:24:52.528Z,0.68
2023-03-01T23:27:23.476Z,0.61
2023-03-01T23:29:54.790Z,0.54
2023-03-01T23:32:23.682Z,0.48
2023-03-01T23:34:53.531Z,0.52
2023-03-01T23:37:22.487Z,0.54
2023-03-01T23:39:52.490Z,0.48
2023-03-01T23:42:24.332Z,0.49
2023-03-01T23:44:53.663Z,0.48
2023-03-01T23:47:23.550Z,0.48
2023-03-01T23:49:52.513Z,0.44
2023-03-01T23:52:21.510Z,0.39
2023-03-01T23:54:51.830Z,0.30
2023-03-01T23:57:22.161Z,0.32
2023-03-01T23:59:51.798Z,0.33
